• Join FlightAware (Why Join?)
  • Login
  • US Flag 
03:36PM EDT


 

Airport Tracker/Info


-or-


 

Live Flight TrackerFlight Track Log ✈ N7304T ✈ 03-Nov-2013 ✈ KBAF - KCDW

Flight Track Log - Related Links

Times and Time Zones

All times are in EST time to prevent confusion due to time zone crossing. See the N7304T flight status page for this flight to view local times or setup timezone preferences in your user account.

Time Position Orientation Groundspeed Altitude Reporting Facility
EST Latitude Longitude Course Direction KTS MPH feet Rate Location/Type
12:27PM 42.1256 -72.7614 202° Southwest 117 135 2,800  Level Boston Center
12:28PM 42.1164 -72.7669 204° Southwest 115 132 3,000 960 Climbing Boston Center
12:28PM 42.0992 -72.7867 220° Southwest 113 130 3,800 1,140 Climbing Boston Center
12:29PM 42.0947 -72.7944 232° Southwest 108 124 4,200 660 Climbing Boston Center
12:29PM 42.0800 -72.8172 229° Southwest 122 140 4,500 180 Climbing Boston Center
12:30PM 42.0708 -72.8281 221° Southwest 133 153 4,400 -120 Descending Boston Center
12:30PM 42.0469 -72.8519 217° Southwest 159 183 4,400  Level Boston Center
12:31PM 42.0364 -72.8600 210° Southwest 151 174 4,400 60 Level Boston Center
12:31PM 42.0097 -72.8875 217° Southwest 149 171 4,500 60 Climbing Boston Center
12:32PM 42.0019 -72.8956 218° Southwest 147 169 4,500  Level Boston Center
12:32PM 41.9794 -72.9200 219° Southwest 148 170 4,500  Level Boston Center
12:33PM 41.9694 -72.9303 217° Southwest 150 173 4,500  Level Boston Center
12:34PM 41.9411 -72.9494 207° Southwest 157 181 4,500  Level Boston Center
12:34PM 41.9300 -72.9556 202° Southwest 159 183 4,500  Level Boston Center
12:35PM 41.9003 -72.9692 199° South 160 184 4,500 60 Level Boston Center
12:35PM 41.8889 -72.9758 204° Southwest 159 183 4,600 180 Climbing Boston Center
12:36PM 41.8625 -72.9958 209° Southwest 152 175 4,700 60 Climbing Boston Center
12:36PM 41.8500 -73.0064 212° Southwest 152 175 4,700 -120 Level Boston Center
12:37PM 41.8236 -73.0281 211° Southwest 155 178 4,600 -120 Descending Boston Center
12:37PM 41.8125 -73.0381 214° Southwest 160 184 4,600  Level Boston Center
12:38PM 41.7861 -73.0633 216° Southwest 161 185 4,600 60 Level Boston Center
12:38PM 41.7772 -73.0750 224° Southwest 160 184 4,700  Climbing Boston Center
12:39PM 41.7514 -73.1058 222° Southwest 160 184 4,600 -120 Descending Boston Center
12:39PM 41.7442 -73.1133 218° Southwest 157 181 4,600 60 Level Boston Center
12:40PM 41.7156 -73.1444 219° Southwest 160 184 4,700  Climbing Boston Center
12:40PM 41.7081 -73.1561 229° Southwest 160 184 4,600 60 Descending Boston Center
12:41PM 41.6753 -73.1956 222° Southwest 160 184 4,800  Climbing Boston Center
12:42PM 41.6422 -73.2353 222° Southwest 160 184 4,700 -60 Descending Boston Center
12:43PM 41.6072 -73.2739 220° Southwest 162 186 4,700 -60 Level Boston Center
12:44PM 41.5717 -73.3178 223° Southwest 162 186 4,600 -60 Descending Boston Center
12:45PM 41.5386 -73.3606 224° Southwest 164 189 4,600  Level Boston Center
12:46PM 41.5050 -73.3986 220° Southwest 160 184 4,600  Level Boston Center
12:47PM 41.4719 -73.4358 220° Southwest 156 180 4,700  Climbing Boston Center
12:48PM 41.4392 -73.4811 226° Southwest 160 184 4,700 -60 Level Boston Center
12:49PM 41.4111 -73.5267 231° Southwest 158 182 4,600 -60 Descending Boston Center
12:50PM 41.3819 -73.5708 229° Southwest 159 183 4,600  Level Boston Center
12:51PM 41.3667 -73.6000 235° Southwest 158 182 4,600 -180 Level New York TRACON
12:52PM 41.3500 -73.6500 246° West 159 183 4,400 -60 Descending New York TRACON
12:53PM 41.3167 -73.6833 217° Southwest 159 183 4,500  Climbing New York TRACON
12:54PM 41.2833 -73.7333 228° Southwest 155 178 4,500 -240 Level New York TRACON
12:55PM 41.2500 -73.7833 228° Southwest 156 180 4,100 -540 Descending New York TRACON
12:56PM 41.2500 -73.8333 270° West 144 166 3,400 -660 Descending New York TRACON
12:57PM 41.2333 -73.8833 246° West 151 174 2,800 -420 Descending New York TRACON
12:58PM 41.2000 -73.9167 217° Southwest 149 171 2,600 -180 Descending New York TRACON
12:59PM 41.1667 -73.9500 217° Southwest 148 170 2,500 -60 Descending New York TRACON
01:00PM 41.1333 -73.9833 217° Southwest 141 162 2,500 -60 Level New York TRACON
01:01PM 41.1000 -74.0167 217° Southwest 147 169 2,400  Descending New York TRACON
01:02PM 41.0833 -74.0500 236° Southwest 140 161 2,600 120 Climbing New York TRACON
01:03PM 41.0500 -74.0833 217° Southwest 138 159 2,700 -60 Climbing New York TRACON
01:04PM 41.0333 -74.1333 246° West 147 169 2,500 -180 Descending New York TRACON
01:05PM 41.0167 -74.1667 236° Southwest 137 158 2,400 -60 Descending New York TRACON
01:06PM 40.9833 -74.2000 217° Southwest 141 162 2,400 -240 Level New York TRACON
01:07PM 40.9500 -74.2167 201° Southwest 148 170 2,000 -120 Descending New York TRACON
01:08PM 40.9333 -74.2500 237° Southwest 108 124 2,200 -120 Climbing New York TRACON
01:09PM 40.9167 -74.3000 246° West 110 127 1,800 -600 Descending New York TRACON
01:10PM 40.8833 -74.3000 180° South 113 130 1,000 -300 Descending New York TRACON
01:12PM 40.8500 -74.3000 180° South 104 120 1,000  Level New York TRACON